createdAt,value
2019-03-13T00:00:15.246Z,72.09
2019-03-13T00:00:55.833Z,72.38
2019-03-13T00:01:36.429Z,72.19
2019-03-13T00:02:17.069Z,71.91
2019-03-13T00:02:57.683Z,71.71
2019-03-13T00:03:38.287Z,72.09
2019-03-13T00:04:18.955Z,71.71
2019-03-13T00:04:59.596Z,72.34
2019-03-13T00:05:40.185Z,72.06
2019-03-13T00:06:20.811Z,71.48
2019-03-13T00:07:01.431Z,71.71
2019-03-13T00:07:42.083Z,72.09
2019-03-13T00:08:22.676Z,72.29
2019-03-13T00:09:03.265Z,72.25
2019-03-13T00:09:43.859Z,72.38
2019-03-13T00:10:24.461Z,72.29
2019-03-13T00:11:05.069Z,72.34
2019-03-13T00:11:45.782Z,72.38
2019-03-13T00:12:26.471Z,72.34
2019-03-13T00:13:07.095Z,72.09
2019-03-13T00:13:47.679Z,72.38
2019-03-13T00:14:28.286Z,72.67
2019-03-13T00:15:08.903Z,72.29
2019-03-13T00:15:49.968Z,72.58
2019-03-13T00:16:32.079Z,72.86
2019-03-13T00:17:12.874Z,72.48
2019-03-13T00:17:53.488Z,72.29
2019-03-13T00:18:34.082Z,72.48
2019-03-13T00:19:14.750Z,72.67
2019-03-13T00:19:55.301Z,72.67
2019-03-13T00:20:35.935Z,72.77
2019-03-13T00:21:16.532Z,72.96
2019-03-13T00:21:57.147Z,72.86
2019-03-13T00:22:37.741Z,73.25
2019-03-13T00:23:18.336Z,72.54
2019-03-13T00:23:58.935Z,73.15
2019-03-13T00:24:39.739Z,72.77
2019-03-13T00:25:20.322Z,72.48
2019-03-13T00:26:00.920Z,72.67
2019-03-13T00:26:41.560Z,72.38
2019-03-13T00:27:22.151Z,72.19
2019-03-13T00:28:02.762Z,72.58
2019-03-13T00:28:43.382Z,72.38
2019-03-13T00:29:23.984Z,72.48
2019-03-13T00:30:06.130Z,72.38
2019-03-13T00:30:46.731Z,72.58
2019-03-13T00:31:27.319Z,72.58
2019-03-13T00:32:07.985Z,72.29
2019-03-13T00:32:48.684Z,72.48
2019-03-13T00:33:30.579Z,72.38
2019-03-13T00:34:11.185Z,72.19
2019-03-13T00:34:51.846Z,72.44
2019-03-13T00:35:32.441Z,72.48
2019-03-13T00:36:13.068Z,72.58
2019-03-13T00:36:53.674Z,72.67
2019-03-13T00:37:34.276Z,72.58
2019-03-13T00:38:14.858Z,72.48
2019-03-13T00:38:55.441Z,72.58
2019-03-13T00:39:36.060Z,72.16
2019-03-13T00:40:16.644Z,72.38
2019-03-13T00:40:57.236Z,72.19
2019-03-13T00:41:37.831Z,72.67
2019-03-13T00:42:18.489Z,72.38
2019-03-13T00:42:59.099Z,72
2019-03-13T00:43:40.555Z,72.09
2019-03-13T00:44:21.605Z,72.19
2019-03-13T00:45:02.519Z,72.38
2019-03-13T00:45:43.124Z,72.73
2019-03-13T00:46:23.736Z,72.09
2019-03-13T00:47:04.338Z,72.19
2019-03-13T00:47:44.943Z,72.09
2019-03-13T00:48:25.605Z,71.96
2019-03-13T00:49:06.341Z,72.09
2019-03-13T00:49:47.267Z,72
2019-03-13T00:50:27.868Z,72.19
2019-03-13T00:51:08.498Z,71.61
2019-03-13T00:51:49.111Z,72
2019-03-13T00:52:29.739Z,72.09
2019-03-13T00:53:10.349Z,72.19
2019-03-13T00:53:50.938Z,71.91
2019-03-13T00:54:31.536Z,72.06
2019-03-13T00:55:12.198Z,71.58
2019-03-13T00:55:52.789Z,71.87
2019-03-13T00:56:33.384Z,72.86
2019-03-13T00:57:13.999Z,72.19
2019-03-13T00:57:55.274Z,72.09
2019-03-13T00:58:35.870Z,71.96
2019-03-13T00:59:16.496Z,72.09
2019-03-13T00:59:57.105Z,71.58
2019-03-13T01:00:37.709Z,72.29
2019-03-13T01:01:18.365Z,71.91
2019-03-13T01:01:58.970Z,72
2019-03-13T01:02:39.552Z,72.25
2019-03-13T01:03:20.139Z,72.09
2019-03-13T01:04:00.762Z,72.16
2019-03-13T01:04:41.427Z,72
2019-03-13T01:05:22.026Z,71.87
2019-03-13T01:06:02.621Z,72.19
2019-03-13T01:06:43.223Z,72.48
2019-03-13T01:07:23.823Z,72.19
2019-03-13T01:08:04.424Z,72.67
2019-03-13T01:08:45.023Z,71.87
2019-03-13T01:09:25.643Z,71.96
2019-03-13T01:10:06.222Z,72.06
2019-03-13T01:10:46.890Z,71.87
2019-03-13T01:11:27.529Z,72.67
2019-03-13T01:12:08.079Z,72.09
2019-03-13T01:12:48.681Z,71.91
2019-03-13T01:13:29.282Z,72.19
2019-03-13T01:14:09.895Z,71.58
2019-03-13T01:14:50.485Z,72.09
2019-03-13T01:15:31.080Z,72.58
2019-03-13T01:16:11.670Z,71.87
2019-03-13T01:16:52.272Z,72
2019-03-13T01:17:32.864Z,72.58
2019-03-13T01:18:13.454Z,71.87
2019-03-13T01:18:54.093Z,72.58
2019-03-13T01:19:34.685Z,72.34
2019-03-13T01:20:15.296Z,72.25
2019-03-13T01:20:55.996Z,72.09
2019-03-13T01:21:36.590Z,72.09
2019-03-13T01:22:17.228Z,72.54
2019-03-13T01:22:57.828Z,72.64
2019-03-13T01:23:38.424Z,72.54
2019-03-13T01:24:19.033Z,72.44
2019-03-13T01:24:59.629Z,72.77
2019-03-13T01:25:40.222Z,72.58
2019-03-13T01:26:20.828Z,72.67
2019-03-13T01:27:01.435Z,72.44
2019-03-13T01:27:42.026Z,72.58
2019-03-13T01:28:22.620Z,72.38
2019-03-13T01:29:03.201Z,72.64
2019-03-13T01:29:43.818Z,72.77
2019-03-13T01:30:24.434Z,72.58
2019-03-13T01:31:05.028Z,72.58
2019-03-13T01:31:45.629Z,72.64
2019-03-13T01:32:26.240Z,72.73
2019-03-13T01:33:06.834Z,72.09
2019-03-13T01:33:47.414Z,72.73
2019-03-13T01:34:28.006Z,72.54
2019-03-13T01:35:08.595Z,72.73
2019-03-13T01:35:49.191Z,72.54
2019-03-13T01:36:29.814Z,72.48
2019-03-13T01:37:10.432Z,72.58
2019-03-13T01:37:51.054Z,72.64
2019-03-13T01:38:31.678Z,72.64
2019-03-13T01:39:12.306Z,71.96
2019-03-13T01:39:52.916Z,72.54
2019-03-13T01:40:33.524Z,72.38
2019-03-13T01:41:14.116Z,72.64
2019-03-13T01:41:54.710Z,72.67
2019-03-13T01:42:35.314Z,71.96
2019-03-13T01:43:15.918Z,72.77
2019-03-13T01:43:56.528Z,72.73
2019-03-13T01:44:40.342Z,72.54
2019-03-13T01:45:17.739Z,72.64
2019-03-13T01:45:58.392Z,72.54
2019-03-13T01:46:39.028Z,72.77
2019-03-13T01:47:19.627Z,72.44
2019-03-13T01:48:00.232Z,72.58
2019-03-13T01:48:40.856Z,72.77
2019-03-13T01:49:21.442Z,72.44
2019-03-13T01:50:02.061Z,72.73
2019-03-13T01:50:42.652Z,72.54
2019-03-13T01:51:23.256Z,72.54
2019-03-13T01:52:03.854Z,72.73
2019-03-13T01:52:44.434Z,72.77
2019-03-13T01:53:25.027Z,72.44
2019-03-13T01:54:05.615Z,72.73
2019-03-13T01:54:46.216Z,72.73
2019-03-13T01:55:26.800Z,72.44
2019-03-13T01:56:07.405Z,72.34
2019-03-13T01:56:48.008Z,72.54
2019-03-13T01:57:28.596Z,72.54
2019-03-13T01:58:09.231Z,72.44
2019-03-13T01:58:49.836Z,72.64
2019-03-13T01:59:30.427Z,72.73
2019-03-13T02:00:11.028Z,72.77
2019-03-13T02:00:51.626Z,72.64
2019-03-13T02:01:32.204Z,72.54
2019-03-13T02:02:12.782Z,72.44
2019-03-13T02:02:53.374Z,72.73
2019-03-13T02:03:33.980Z,72.64
2019-03-13T02:04:14.577Z,72.44
2019-03-13T02:04:55.166Z,72.29
2019-03-13T02:05:35.756Z,72.54
2019-03-13T02:06:16.348Z,72.34
2019-03-13T02:06:56.952Z,72.64
2019-03-13T02:07:37.549Z,72.34
2019-03-13T02:08:18.156Z,72.73
2019-03-13T02:08:58.748Z,72.44
2019-03-13T02:09:39.344Z,72.73
2019-03-13T02:10:19.940Z,72.44
2019-03-13T02:11:00.535Z,72.64
2019-03-13T02:11:41.132Z,72.16
2019-03-13T02:12:21.724Z,72.25
2019-03-13T02:13:02.316Z,72.54
2019-03-13T02:13:42.908Z,72.34
2019-03-13T02:14:23.545Z,72.25
2019-03-13T02:15:04.139Z,72.54
2019-03-13T02:15:44.748Z,72.44
2019-03-13T02:16:25.342Z,72.34
2019-03-13T02:17:05.960Z,72.44
2019-03-13T02:17:46.546Z,72.73
2019-03-13T02:18:27.144Z,72.25
2019-03-13T02:19:07.750Z,72.64
2019-03-13T02:19:49.777Z,72.44
2019-03-13T02:20:28.934Z,72.44
2019-03-13T02:21:09.641Z,72.34
2019-03-13T02:21:50.146Z,72.54
2019-03-13T02:22:30.752Z,72.44
2019-03-13T02:23:11.340Z,72.73
2019-03-13T02:23:51.938Z,72.54
2019-03-13T02:24:32.524Z,72.25
2019-03-13T02:25:13.120Z,72.44
2019-03-13T02:25:53.728Z,72.54
2019-03-13T02:26:34.319Z,72.44
2019-03-13T02:27:14.946Z,72.64
2019-03-13T02:27:55.535Z,72.54
2019-03-13T02:28:36.159Z,72.73
2019-03-13T02:29:16.754Z,72.64
2019-03-13T02:29:57.351Z,72.44
2019-03-13T02:30:37.944Z,72.34
2019-03-13T02:31:18.558Z,72.34
2019-03-13T02:31:59.155Z,72.54
2019-03-13T02:32:39.827Z,72.73
2019-03-13T02:33:20.356Z,72.64
2019-03-13T02:34:00.939Z,72.54
2019-03-13T02:34:41.519Z,72.34
2019-03-13T02:35:22.090Z,72.44
2019-03-13T02:36:02.716Z,72.16
2019-03-13T02:36:43.340Z,72.25
2019-03-13T02:37:23.935Z,72.44
2019-03-13T02:38:04.553Z,72.44
2019-03-13T02:38:45.136Z,72.44
2019-03-13T02:39:25.742Z,72.34
2019-03-13T02:40:06.335Z,72.67
2019-03-13T02:40:46.941Z,72.54
2019-03-13T02:41:27.554Z,72.34
2019-03-13T02:42:10.039Z,72.54
2019-03-13T02:42:50.633Z,72.25
2019-03-13T02:43:31.246Z,72.34
2019-03-13T02:44:11.846Z,72.34
2019-03-13T02:44:52.505Z,72.25
2019-03-13T02:45:33.095Z,72.34
2019-03-13T02:46:13.706Z,72.44
2019-03-13T02:46:54.286Z,72.44
2019-03-13T02:47:34.885Z,72.54
2019-03-13T02:48:15.471Z,72.25
2019-03-13T02:48:56.054Z,72.34
2019-03-13T02:49:36.657Z,72.64
2019-03-13T02:50:17.271Z,72.64
2019-03-13T02:50:57.867Z,72.54
2019-03-13T02:51:38.475Z,72.44
2019-03-13T02:52:19.046Z,72.06
2019-03-13T02:52:59.667Z,72.34
2019-03-13T02:53:40.272Z,72.64
2019-03-13T02:54:20.853Z,72.48
2019-03-13T02:55:01.438Z,72.16
2019-03-13T02:55:42.042Z,72.06
2019-03-13T02:56:22.646Z,72.34
2019-03-13T02:57:03.239Z,72.44
2019-03-13T02:57:43.842Z,72.34
2019-03-13T02:58:24.428Z,72.92
2019-03-13T02:59:05.028Z,72.38
2019-03-13T02:59:45.633Z,72.44
2019-03-13T03:00:26.223Z,72.54
2019-03-13T03:01:06.815Z,72.06
2019-03-13T03:01:47.417Z,72.73
2019-03-13T03:02:28.006Z,72.48
2019-03-13T03:03:08.609Z,72.25
2019-03-13T03:03:49.197Z,72.16
2019-03-13T03:04:29.836Z,72.34
2019-03-13T03:05:10.385Z,72.06
2019-03-13T03:05:50.974Z,72.25
2019-03-13T03:06:31.576Z,72.44
2019-03-13T03:07:12.911Z,72.25
2019-03-13T03:07:52.808Z,72.06
2019-03-13T03:08:33.432Z,72.34
2019-03-13T03:09:14.042Z,72.44
2019-03-13T03:09:54.644Z,72.34
2019-03-13T03:10:35.248Z,72.25
2019-03-13T03:11:15.831Z,72.34
2019-03-13T03:11:56.426Z,72.34
2019-03-13T03:12:37.005Z,72.16
2019-03-13T03:13:17.592Z,72.34
2019-03-13T03:13:58.206Z,72.54
2019-03-13T03:14:38.795Z,72.34
2019-03-13T03:15:19.478Z,72.73
2019-03-13T03:16:00.090Z,72.34
2019-03-13T03:16:40.680Z,73.02
2019-03-13T03:17:21.279Z,72.44
2019-03-13T03:18:01.886Z,72.34
2019-03-13T03:18:42.493Z,72.16
2019-03-13T03:19:23.096Z,72.54
2019-03-13T03:20:03.659Z,72.54
2019-03-13T03:20:44.264Z,72.44
2019-03-13T03:21:24.881Z,72.44
2019-03-13T03:22:05.461Z,72.54
2019-03-13T03:22:46.195Z,72.44
2019-03-13T03:23:28.364Z,72.25
2019-03-13T03:24:08.965Z,72.34
2019-03-13T03:24:49.555Z,72.34
2019-03-13T03:25:30.151Z,72.44
2019-03-13T03:26:10.764Z,72.44
2019-03-13T03:26:51.356Z,72.64
2019-03-13T03:27:31.957Z,72.34
2019-03-13T03:28:12.586Z,72.16
2019-03-13T03:28:53.179Z,72.34
2019-03-13T03:29:33.761Z,72.34
2019-03-13T03:30:14.370Z,72.25
2019-03-13T03:30:54.943Z,72.25
2019-03-13T03:31:35.539Z,72.34
2019-03-13T03:32:16.146Z,72.92
2019-03-13T03:32:56.735Z,72.73
2019-03-13T03:33:37.313Z,72.25
2019-03-13T03:34:17.940Z,72.25
2019-03-13T03:34:58.554Z,72.34
2019-03-13T03:35:39.149Z,72.16
2019-03-13T03:36:19.747Z,72.54
2019-03-13T03:37:00.337Z,72.44
2019-03-13T03:37:40.962Z,72.25
2019-03-13T03:38:21.543Z,72.64
2019-03-13T03:39:02.146Z,72.44
2019-03-13T03:39:42.742Z,72.06
2019-03-13T03:40:23.746Z,72.34
2019-03-13T03:41:03.928Z,72.44
2019-03-13T03:41:44.525Z,72.54
2019-03-13T03:42:25.142Z,72.34
2019-03-13T03:43:05.717Z,72.06
2019-03-13T03:43:46.305Z,72.34
2019-03-13T03:44:26.899Z,72.06
2019-03-13T03:45:07.515Z,72.54
2019-03-13T03:45:48.082Z,72.16
2019-03-13T03:46:28.678Z,72.34
2019-03-13T03:47:09.275Z,72.54
2019-03-13T03:47:49.888Z,72.34
2019-03-13T03:48:30.493Z,72.54
2019-03-13T03:49:11.095Z,72.34
2019-03-13T03:49:51.703Z,72.44
2019-03-13T03:50:32.315Z,72.44
2019-03-13T03:51:12.901Z,72.83
2019-03-13T03:51:53.499Z,72.34
2019-03-13T03:52:34.098Z,72.25
2019-03-13T03:53:14.701Z,72.34
2019-03-13T03:53:55.295Z,72.44
2019-03-13T03:54:35.885Z,72.54
2019-03-13T03:55:16.522Z,72.83
2019-03-13T03:55:57.069Z,72.34
2019-03-13T03:56:37.663Z,72.34
2019-03-13T03:57:18.257Z,72.44
2019-03-13T03:57:58.842Z,72.25
2019-03-13T03:58:39.434Z,72.64
2019-03-13T03:59:20.035Z,72.34
2019-03-13T04:00:00.624Z,72.73
2019-03-13T04:00:41.240Z,72.92
2019-03-13T04:01:21.815Z,72.64
2019-03-13T04:02:02.399Z,72.54
2019-03-13T04:02:42.997Z,72.54
2019-03-13T04:03:23.592Z,72.34
2019-03-13T04:04:04.201Z,72.73
2019-03-13T04:04:44.783Z,72.64
2019-03-13T04:05:25.375Z,72.25
2019-03-13T04:06:05.956Z,72.73
2019-03-13T04:06:46.599Z,72.25
2019-03-13T04:07:27.209Z,72.73
2019-03-13T04:08:07.821Z,72.54
2019-03-13T04:08:48.423Z,72.64
2019-03-13T04:09:29.085Z,72.34
2019-03-13T04:10:09.639Z,72.25
2019-03-13T04:10:50.224Z,72.16
2019-03-13T04:11:30.811Z,72.25
2019-03-13T04:12:11.405Z,72.16
2019-03-13T04:12:52.012Z,72.44
2019-03-13T04:13:32.617Z,72.16
2019-03-13T04:14:13.220Z,72.34
2019-03-13T04:14:53.807Z,72.25
2019-03-13T04:15:34.409Z,72.16
2019-03-13T04:16:15.012Z,72.25
2019-03-13T04:16:55.635Z,72.44
2019-03-13T04:17:36.229Z,72.34
2019-03-13T04:18:18.594Z,72.25
2019-03-13T04:18:59.189Z,72.25
2019-03-13T04:19:39.776Z,72.06
2019-03-13T04:20:20.372Z,72.44
2019-03-13T04:21:00.960Z,72.44
2019-03-13T04:21:41.557Z,72.06
2019-03-13T04:22:22.148Z,72.44
2019-03-13T04:23:02.748Z,72.06
2019-03-13T04:23:43.357Z,72.44
2019-03-13T04:24:23.943Z,72.06
2019-03-13T04:25:04.547Z,72.44
2019-03-13T04:25:45.133Z,72.25
2019-03-13T04:26:25.761Z,72.34
2019-03-13T04:27:06.377Z,72.34
2019-03-13T04:27:46.966Z,72.34
2019-03-13T04:28:27.569Z,72.44
2019-03-13T04:29:08.152Z,72.16
2019-03-13T04:29:48.748Z,72.44
2019-03-13T04:30:29.353Z,72.73
2019-03-13T04:31:09.957Z,72.34
2019-03-13T04:31:50.547Z,72.54
2019-03-13T04:32:31.133Z,72.25
2019-03-13T04:33:11.763Z,72.34
2019-03-13T04:33:52.351Z,72.44
2019-03-13T04:34:32.949Z,72.34
2019-03-13T04:35:13.534Z,72.34
2019-03-13T04:35:54.168Z,72.34
2019-03-13T04:36:34.769Z,72.44
2019-03-13T04:37:15.367Z,72.34
2019-03-13T04:37:55.953Z,72.34
2019-03-13T04:38:36.527Z,72.34
2019-03-13T04:39:17.117Z,72.92
2019-03-13T04:39:57.715Z,72.34
2019-03-13T04:40:38.311Z,72.16
2019-03-13T04:41:18.920Z,72.34
2019-03-13T04:41:59.534Z,72.44
2019-03-13T04:42:40.129Z,72.25
2019-03-13T04:43:20.721Z,72.73
2019-03-13T04:44:01.325Z,72.25
2019-03-13T04:44:41.932Z,72.34
2019-03-13T04:45:22.517Z,72.64
2019-03-13T04:46:03.125Z,72.34
2019-03-13T04:46:43.733Z,72.34
2019-03-13T04:47:25.103Z,73.11
2019-03-13T04:48:04.942Z,72.34
2019-03-13T04:48:45.546Z,72.92
2019-03-13T04:49:26.160Z,72.54
2019-03-13T04:50:06.761Z,72.34
2019-03-13T04:50:47.355Z,72.34
2019-03-13T04:51:27.953Z,72.92
2019-03-13T04:52:08.559Z,72.34
2019-03-13T04:52:49.159Z,72.64
2019-03-13T04:53:29.745Z,72.44
2019-03-13T04:54:10.352Z,72.44
2019-03-13T04:54:50.944Z,73.11
2019-03-13T04:55:31.550Z,72.06
2019-03-13T04:56:12.143Z,72.34
2019-03-13T04:56:52.748Z,72.16
2019-03-13T04:57:33.327Z,72.06
2019-03-13T04:58:13.915Z,72.25
2019-03-13T04:58:54.524Z,72.44
2019-03-13T04:59:35.121Z,72.25
2019-03-13T05:00:15.719Z,72.34
2019-03-13T05:00:56.319Z,72.25
2019-03-13T05:01:36.915Z,72.25
2019-03-13T05:02:17.525Z,72.44
2019-03-13T05:02:58.175Z,72.34
2019-03-13T05:03:38.781Z,72.34
2019-03-13T05:04:19.382Z,72.06
2019-03-13T05:04:59.975Z,72.06
2019-03-13T05:05:40.593Z,72.16
2019-03-13T05:06:21.181Z,72.44
2019-03-13T05:07:01.811Z,72.44
2019-03-13T05:07:42.384Z,72.34
2019-03-13T05:08:22.981Z,72.25
2019-03-13T05:09:03.624Z,72.44
2019-03-13T05:09:44.212Z,72.54
2019-03-13T05:10:24.819Z,72.06
2019-03-13T05:11:05.415Z,72.44
2019-03-13T05:11:46.012Z,72.06
2019-03-13T05:12:26.613Z,72.44
2019-03-13T05:13:07.256Z,72.44
2019-03-13T05:13:47.791Z,72.25
2019-03-13T05:14:28.500Z,72.54
2019-03-13T05:15:09.114Z,72.34
2019-03-13T05:15:49.703Z,72.06
2019-03-13T05:16:30.295Z,72.16
2019-03-13T05:17:10.891Z,72.44
2019-03-13T05:17:51.492Z,72.16
2019-03-13T05:18:32.083Z,72.06
2019-03-13T05:19:12.669Z,72.34
2019-03-13T05:19:53.285Z,72.16
2019-03-13T05:20:33.872Z,72.34
2019-03-13T05:21:14.480Z,72.73
2019-03-13T05:21:55.084Z,72.34
2019-03-13T05:22:35.683Z,72.34
2019-03-13T05:23:16.287Z,72.25
2019-03-13T05:23:56.889Z,72.34
2019-03-13T05:24:37.475Z,72.54
2019-03-13T05:25:19.279Z,72.34
2019-03-13T05:25:58.697Z,72.34
2019-03-13T05:26:39.291Z,72.34
2019-03-13T05:27:19.888Z,72.34
2019-03-13T05:28:00.471Z,72.06
2019-03-13T05:28:41.070Z,72.44
2019-03-13T05:29:21.649Z,72.92
2019-03-13T05:30:02.255Z,72.44
2019-03-13T05:30:42.856Z,72.64
2019-03-13T05:31:23.451Z,72.83
2019-03-13T05:32:04.051Z,72.83
2019-03-13T05:32:44.657Z,72.64
2019-03-13T05:33:25.251Z,72.25
2019-03-13T05:34:05.838Z,72.44
2019-03-13T05:34:46.433Z,72.16
2019-03-13T05:35:27.029Z,72.34
2019-03-13T05:36:07.627Z,73.11
2019-03-13T05:36:48.241Z,72.83
2019-03-13T05:37:28.861Z,72.25
2019-03-13T05:38:09.451Z,72.73
2019-03-13T05:38:50.047Z,72.64
2019-03-13T05:39:30.637Z,72.44
2019-03-13T05:40:11.247Z,72.54
2019-03-13T05:40:51.829Z,72.73
2019-03-13T05:41:32.431Z,72.54
2019-03-13T05:42:13.031Z,72.83
2019-03-13T05:42:53.631Z,72.34
2019-03-13T05:43:34.233Z,72.54
2019-03-13T05:44:14.815Z,72.34
2019-03-13T05:44:55.407Z,72.25
2019-03-13T05:45:36.015Z,72.54
2019-03-13T05:46:16.605Z,72.73
2019-03-13T05:46:57.207Z,72.54
2019-03-13T05:47:37.804Z,72.25
2019-03-13T05:48:18.401Z,72.54
2019-03-13T05:48:59.024Z,72.73
2019-03-13T05:49:39.629Z,72.44
2019-03-13T05:50:20.224Z,72.25
2019-03-13T05:51:00.806Z,72.34
2019-03-13T05:51:41.403Z,72.34
2019-03-13T05:52:21.999Z,72.44
2019-03-13T05:53:02.611Z,72.34
2019-03-13T05:53:43.202Z,72.44
2019-03-13T05:54:23.783Z,72.44
2019-03-13T05:55:04.393Z,72.06
2019-03-13T05:55:45.073Z,72.06
2019-03-13T05:56:25.673Z,72.34
2019-03-13T05:57:06.253Z,72.34
2019-03-13T05:57:46.839Z,72.34
2019-03-13T05:58:27.429Z,72.54
2019-03-13T05:59:08.032Z,72.25
2019-03-13T05:59:48.676Z,72.06
2019-03-13T06:00:29.276Z,72.44
2019-03-13T06:01:09.887Z,72.34
2019-03-13T06:01:50.491Z,72.16
2019-03-13T06:02:31.071Z,72.44
2019-03-13T06:03:11.675Z,72.44
2019-03-13T06:03:52.293Z,72.06
2019-03-13T06:04:32.897Z,72.34
2019-03-13T06:05:13.517Z,72.06
2019-03-13T06:05:54.170Z,72.06
2019-03-13T06:06:34.781Z,72.34
2019-03-13T06:07:15.399Z,72.44
2019-03-13T06:07:55.997Z,72.34
2019-03-13T06:08:36.601Z,72.25
2019-03-13T06:09:17.213Z,72.34
2019-03-13T06:09:57.810Z,72.06
2019-03-13T06:10:38.415Z,72.54
2019-03-13T06:11:19.000Z,72.34
2019-03-13T06:11:59.626Z,72.06
2019-03-13T06:12:40.219Z,72.44
2019-03-13T06:13:20.871Z,72.54
2019-03-13T06:14:01.474Z,72.06
2019-03-13T06:14:42.061Z,72.25
2019-03-13T06:15:22.674Z,72.44
2019-03-13T06:16:03.298Z,72.25
2019-03-13T06:16:43.965Z,72.34
2019-03-13T06:17:24.590Z,72.54
2019-03-13T06:18:05.177Z,72.25
2019-03-13T06:18:45.765Z,72.64
2019-03-13T06:19:26.347Z,72.44
2019-03-13T06:20:10.139Z,72.25
2019-03-13T06:20:47.535Z,72.64
2019-03-13T06:21:28.131Z,72.54
2019-03-13T06:22:08.719Z,72.64
2019-03-13T06:22:49.339Z,72.44
2019-03-13T06:23:29.971Z,72.44
2019-03-13T06:24:10.559Z,72.34
2019-03-13T06:24:51.151Z,72.25
2019-03-13T06:25:31.743Z,72.73
2019-03-13T06:26:12.333Z,72.54
2019-03-13T06:26:52.961Z,72.34
2019-03-13T06:27:33.567Z,72.54
2019-03-13T06:28:14.156Z,72.64
2019-03-13T06:28:54.749Z,72.34
2019-03-13T06:29:35.335Z,72.64
2019-03-13T06:30:15.944Z,72.64
2019-03-13T06:30:56.544Z,72.73
2019-03-13T06:31:37.132Z,72.34
2019-03-13T06:32:17.720Z,72.54
2019-03-13T06:32:58.337Z,72.83
2019-03-13T06:33:38.941Z,72.44
2019-03-13T06:34:19.537Z,72.73
2019-03-13T06:35:00.375Z,72.73
2019-03-13T06:35:40.755Z,71.96
2019-03-13T06:36:21.366Z,71.96
2019-03-13T06:37:01.951Z,72.64
2019-03-13T06:37:42.599Z,71.96
2019-03-13T06:38:23.197Z,72.54
2019-03-13T06:39:03.789Z,72.44
2019-03-13T06:39:44.394Z,72.16
2019-03-13T06:40:24.981Z,72.16
2019-03-13T06:41:05.573Z,71.87
2019-03-13T06:41:46.203Z,72.06
2019-03-13T06:42:26.816Z,71.58
2019-03-13T06:43:07.403Z,71.96
2019-03-13T06:43:48.005Z,71.77
2019-03-13T06:44:28.605Z,71.96
2019-03-13T06:45:09.196Z,71.96
2019-03-13T06:45:49.784Z,71.77
2019-03-13T06:46:30.416Z,71.77
2019-03-13T06:47:11.015Z,71.77
2019-03-13T06:47:51.618Z,71.67
2019-03-13T06:48:32.217Z,71.67
2019-03-13T06:49:12.820Z,71.48
2019-03-13T06:49:53.411Z,71.58
2019-03-13T06:50:34.025Z,72.25
2019-03-13T06:51:14.615Z,72.25
2019-03-13T06:51:55.195Z,72.34
2019-03-13T06:52:35.788Z,72.34
2019-03-13T06:53:16.373Z,71.77
2019-03-13T06:53:56.965Z,72.16
2019-03-13T06:54:37.580Z,72.06
2019-03-13T06:55:18.169Z,72.34
2019-03-13T06:55:58.756Z,72.25
2019-03-13T06:56:39.387Z,72.25
2019-03-13T06:57:20.002Z,72.34
2019-03-13T06:58:00.617Z,72.34
2019-03-13T06:58:41.225Z,71.67
2019-03-13T06:59:21.833Z,71.87
2019-03-13T07:00:02.438Z,71.48
2019-03-13T07:00:43.060Z,71.48
2019-03-13T07:01:23.688Z,71.48
2019-03-13T07:02:04.508Z,71.39
2019-03-13T07:02:45.116Z,71.39
2019-03-13T07:03:25.741Z,71.77
2019-03-13T07:04:06.330Z,71.48
2019-03-13T07:04:46.964Z,71.48
2019-03-13T07:05:27.549Z,71.58
2019-03-13T07:06:08.130Z,71.58
2019-03-13T07:06:48.731Z,71.39
2019-03-13T07:07:29.304Z,71.58
2019-03-13T07:08:11.268Z,71.48
2019-03-13T07:08:51.931Z,71.39
2019-03-13T07:09:32.514Z,71.77
2019-03-13T07:10:13.136Z,71.87
2019-03-13T07:10:53.724Z,71.48
2019-03-13T07:11:34.356Z,71.87
2019-03-13T07:12:15.030Z,71.39
2019-03-13T07:12:55.687Z,71.77
2019-03-13T07:13:36.485Z,71.77
2019-03-13T07:14:17.085Z,71.29
2019-03-13T07:14:57.702Z,71.29
2019-03-13T07:15:38.304Z,71.67
2019-03-13T07:16:18.906Z,71.39
2019-03-13T07:16:59.548Z,71.67
2019-03-13T07:17:40.128Z,71.58
2019-03-13T07:18:20.728Z,71.67
2019-03-13T07:19:01.356Z,71.58
2019-03-13T07:19:41.984Z,71.39
2019-03-13T07:20:22.708Z,71.87
2019-03-13T07:21:03.315Z,71.58
2019-03-13T07:21:44.025Z,71.77
2019-03-13T07:22:24.648Z,71.77
2019-03-13T07:23:05.293Z,71.77
2019-03-13T07:23:46.035Z,71.39
2019-03-13T07:24:26.666Z,71.87
2019-03-13T07:25:07.260Z,71.87
2019-03-13T07:25:47.871Z,71.77
2019-03-13T07:26:28.460Z,72.25
2019-03-13T07:27:09.058Z,72.34
2019-03-13T07:27:49.679Z,71.96
2019-03-13T07:28:30.283Z,71.71
2019-03-13T07:29:12.358Z,71.61
2019-03-13T07:29:51.452Z,71.67
2019-03-13T07:30:32.056Z,71.39
2019-03-13T07:31:12.731Z,71.77
2019-03-13T07:31:53.318Z,71.87
2019-03-13T07:32:33.922Z,71.58
2019-03-13T07:33:14.547Z,72.16
2019-03-13T07:33:55.149Z,72.34
2019-03-13T07:34:35.720Z,71.39
2019-03-13T07:35:16.306Z,71.91
2019-03-13T07:35:57.013Z,71.87
2019-03-13T07:36:37.607Z,72.34
2019-03-13T07:37:18.214Z,71.87
2019-03-13T07:38:00.478Z,71.29
2019-03-13T07:38:41.068Z,72.06
2019-03-13T07:39:21.664Z,71.87
2019-03-13T07:40:02.257Z,71.87
2019-03-13T07:40:42.869Z,71.77
2019-03-13T07:41:23.474Z,71.39
2019-03-13T07:42:04.092Z,71.29
2019-03-13T07:42:44.725Z,71.39
2019-03-13T07:43:25.327Z,71.29
2019-03-13T07:44:05.930Z,71.48
2019-03-13T07:44:46.500Z,71.39
2019-03-13T07:45:27.102Z,71.29
2019-03-13T07:46:07.689Z,71.39
2019-03-13T07:46:48.294Z,71.61
2019-03-13T07:47:29.319Z,71.77
2019-03-13T07:48:09.474Z,71.67
2019-03-13T07:48:50.069Z,71.58
2019-03-13T07:49:30.734Z,71.67
2019-03-13T07:50:11.331Z,71.48
2019-03-13T07:50:51.949Z,71.29
2019-03-13T07:51:32.616Z,71.29
2019-03-13T07:52:13.206Z,71.71
2019-03-13T07:52:53.792Z,71.1
2019-03-13T07:53:34.399Z,71.29
2019-03-13T07:54:15.062Z,70.62
2019-03-13T07:54:55.676Z,70.43
2019-03-13T07:55:36.280Z,70.52
2019-03-13T07:56:16.872Z,70.43
2019-03-13T07:56:57.471Z,70.37
2019-03-13T07:57:38.111Z,70.52
2019-03-13T07:58:18.700Z,70.75
2019-03-13T07:58:59.279Z,70.72
2019-03-13T07:59:39.862Z,70.72
2019-03-13T08:00:20.448Z,70.81
2019-03-13T08:01:01.042Z,70.94
2019-03-13T08:01:41.641Z,70.62
2019-03-13T08:02:22.251Z,70.81
2019-03-13T08:03:02.889Z,70.9
2019-03-13T08:03:43.494Z,70.33
2019-03-13T08:04:24.102Z,70.72
2019-03-13T08:05:04.758Z,70.33
2019-03-13T08:05:45.355Z,70.81
2019-03-13T08:06:25.950Z,70.9
2019-03-13T08:07:06.552Z,70.52
2019-03-13T08:07:47.217Z,70.52
2019-03-13T08:08:27.888Z,70.33
2019-03-13T08:09:08.505Z,70.23
2019-03-13T08:09:49.166Z,70.23
2019-03-13T08:10:29.810Z,70.52
2019-03-13T08:11:10.417Z,70.52
2019-03-13T08:11:51.042Z,70.56
2019-03-13T08:12:31.670Z,70.62
2019-03-13T08:13:12.299Z,70.72
2019-03-13T08:13:52.904Z,70.52
2019-03-13T08:14:33.519Z,70.56
2019-03-13T08:15:14.125Z,70.72
2019-03-13T08:15:54.732Z,70.33
2019-03-13T08:16:35.314Z,71
2019-03-13T08:17:15.948Z,70.23
2019-03-13T08:17:56.529Z,70.52
2019-03-13T08:18:37.242Z,70.27
2019-03-13T08:19:17.825Z,70.72
2019-03-13T08:19:58.420Z,70.72
2019-03-13T08:20:39.013Z,70.72
2019-03-13T08:21:19.602Z,70.84
2019-03-13T08:22:00.200Z,70.62
2019-03-13T08:22:40.806Z,70.14
2019-03-13T08:23:21.429Z,70.46
2019-03-13T08:24:02.005Z,70.14
2019-03-13T08:24:42.598Z,70.43
2019-03-13T08:25:23.202Z,70.23
2019-03-13T08:26:03.802Z,70.23
2019-03-13T08:26:44.386Z,70.14
2019-03-13T08:27:24.978Z,70.43
2019-03-13T08:28:05.576Z,70.04
2019-03-13T08:28:46.171Z,70.23
2019-03-13T08:29:26.774Z,70.14
2019-03-13T08:30:07.373Z,70.62
2019-03-13T08:30:47.970Z,69.75
2019-03-13T08:31:28.604Z,69.85
2019-03-13T08:32:09.212Z,69.75
2019-03-13T08:32:49.814Z,69.85
2019-03-13T08:33:30.436Z,69.89
2019-03-13T08:34:11.025Z,70.04
2019-03-13T08:34:51.641Z,69.85
2019-03-13T08:35:32.235Z,70.17
2019-03-13T08:36:12.867Z,70.07
2019-03-13T08:36:53.552Z,69.98
2019-03-13T08:37:34.145Z,69.98
2019-03-13T08:38:14.738Z,69.85
2019-03-13T08:38:55.402Z,69.85
2019-03-13T08:39:36.118Z,69.66
2019-03-13T08:40:16.718Z,70.04
2019-03-13T08:40:57.331Z,69.75
2019-03-13T08:41:37.922Z,69.85
2019-03-13T08:42:18.563Z,69.95
2019-03-13T08:42:59.167Z,69.89
2019-03-13T08:43:39.770Z,69.95